Time;durP1;ratioP1;P1;durP2;ratioP2;P2;SDS_P1;SDS_P2;PMS_P1;PMS_P2;Temp;Humidity;BMP_temperature;BMP_pressure;BME280_temperature;BME280_humidity;BME280_pressure;Samples;Min_cycle;Max_cycle;Signal;HPM_P1;HPM_P2
2023/01/22 00:00:44;;;;;;;18.02;10.05;;;;;;;;;;5034202;28;20213;-63
2023/01/22 00:03:15;;;;;;;24.30;9.05;;;;;;;;;;5032515;28;20649;-62
2023/01/22 00:05:45;;;;;;;14.63;9.15;;;;;;;;;;5031859;28;20197;-62
2023/01/22 00:08:13;;;;;;;14.30;9.48;;;;;;;;;;5040252;28;20226;-62
2023/01/22 00:10:48;;;;;;;15.20;8.90;;;;;;;;;;5051349;28;20201;-62
2023/01/22 00:13:17;;;;;;;13.77;8.77;;;;;;;;;;5051449;28;20188;-63
2023/01/22 00:15:46;;;;;;;14.57;9.82;;;;;;;;;;5052016;28;20247;-62
2023/01/22 00:18:14;;;;;;;15.00;10.00;;;;;;;;;;5051583;28;20205;-62
2023/01/22 00:20:46;;;;;;;16.50;9.43;;;;;;;;;;5052657;28;20205;-62
2023/01/22 00:23:15;;;;;;;14.77;9.48;;;;;;;;;;5051068;28;20224;-64
2023/01/22 00:25:43;;;;;;;12.57;8.50;;;;;;;;;;5052518;28;20214;-63
2023/01/22 00:28:13;;;;;;;14.52;8.57;;;;;;;;;;5050531;28;20197;-63
2023/01/22 00:30:42;;;;;;;10.25;7.97;;;;;;;;;;5051463;28;20211;-63
2023/01/22 00:33:11;;;;;;;14.38;8.68;;;;;;;;;;5053811;28;20875;-63
2023/01/22 00:35:40;;;;;;;13.75;8.95;;;;;;;;;;5053475;28;20234;-62
2023/01/22 00:38:08;;;;;;;13.45;8.13;;;;;;;;;;5053500;28;20204;-62
2023/01/22 00:40:37;;;;;;;12.10;8.18;;;;;;;;;;5053418;28;20208;-63
2023/01/22 00:43:05;;;;;;;10.57;7.05;;;;;;;;;;5052468;28;20200;-63
2023/01/22 00:45:34;;;;;;;11.25;7.82;;;;;;;;;;5052592;28;20226;-63
2023/01/22 00:48:02;;;;;;;12.57;8.15;;;;;;;;;;5052428;28;20208;-63
2023/01/22 00:50:32;;;;;;;11.88;7.85;;;;;;;;;;5052121;28;20269;-63
2023/01/22 00:53:02;;;;;;;11.32;7.80;;;;;;;;;;5050719;28;20199;-63
2023/01/22 00:55:31;;;;;;;14.07;8.10;;;;;;;;;;5050302;28;20699;-63
2023/01/22 00:57:59;;;;;;;16.55;9.45;;;;;;;;;;5049644;28;20559;-63
2023/01/22 01:00:27;;;;;;;13.60;9.82;;;;;;;;;;5035600;28;20243;-63
2023/01/22 01:05:43;;;;;;;10.82;6.88;;;;;;;;;;5051250;28;20656;-63
2023/01/22 01:08:11;;;;;;;16.80;8.35;;;;;;;;;;5039224;28;20204;-63
2023/01/22 01:10:40;;;;;;;10.45;6.78;;;;;;;;;;5030755;28;20687;-63
2023/01/22 01:13:09;;;;;;;16.55;8.35;;;;;;;;;;5031730;28;20209;-62
2023/01/22 01:15:37;;;;;;;13.63;8.50;;;;;;;;;;5031862;28;20232;-62
2023/01/22 01:18:07;;;;;;;11.75;7.25;;;;;;;;;;5033466;28;20607;-61
2023/01/22 01:20:36;;;;;;;11.57;7.30;;;;;;;;;;5050841;28;20201;-62
2023/01/22 01:23:05;;;;;;;10.40;6.88;;;;;;;;;;5055395;28;20236;-62
2023/01/22 01:25:34;;;;;;;11.73;7.68;;;;;;;;;;5056457;28;20185;-62
2023/01/22 01:28:04;;;;;;;10.90;6.80;;;;;;;;;;5054998;28;20249;-62
2023/01/22 01:30:32;;;;;;;11.43;6.47;;;;;;;;;;5055079;28;20234;-62
2023/01/22 01:33:00;;;;;;;12.35;7.75;;;;;;;;;;5044292;28;20683;-62
2023/01/22 01:35:28;;;;;;;10.20;6.78;;;;;;;;;;5035621;28;20216;-62
2023/01/22 01:37:56;;;;;;;11.07;7.10;;;;;;;;;;5034063;28;20205;-62
2023/01/22 01:40:26;;;;;;;11.73;6.68;;;;;;;;;;5035509;28;20660;-62
2023/01/22 01:42:54;;;;;;;11.10;6.57;;;;;;;;;;5035200;28;20205;-62
2023/01/22 01:45:24;;;;;;;8.98;6.55;;;;;;;;;;5035490;28;20205;-63
2023/01/22 01:47:55;;;;;;;10.35;6.85;;;;;;;;;;5035162;28;20271;-62
2023/01/22 01:50:26;;;;;;;10.00;6.45;;;;;;;;;;5037835;28;20201;-61
2023/01/22 01:52:54;;;;;;;9.23;6.03;;;;;;;;;;5054632;28;20211;-62
2023/01/22 01:55:25;;;;;;;12.88;7.43;;;;;;;;;;5054432;28;20205;-62
2023/01/22 01:57:56;;;;;;;10.70;6.85;;;;;;;;;;5054442;28;20195;-62
2023/01/22 02:00:25;;;;;;;11.13;7.35;;;;;;;;;;5054449;28;20228;-61
2023/01/22 02:02:53;;;;;;;10.90;7.75;;;;;;;;;;5045132;28;20600;-61
2023/01/22 02:05:22;;;;;;;14.93;8.80;;;;;;;;;;5033893;28;20205;-62
2023/01/22 02:07:50;;;;;;;10.18;7.20;;;;;;;;;;5033683;28;20205;-62
2023/01/22 02:10:18;;;;;;;8.65;6.38;;;;;;;;;;5033796;28;20232;-62
2023/01/22 02:12:47;;;;;;;10.93;6.72;;;;;;;;;;5045327;28;20728;-62
2023/01/22 02:15:16;;;;;;;11.02;7.18;;;;;;;;;;5035709;28;20233;-62
2023/01/22 02:17:44;;;;;;;9.35;6.68;;;;;;;;;;5034459;28;20696;-62
2023/01/22 02:20:13;;;;;;;10.98;7.50;;;;;;;;;;5034937;28;20208;-59
2023/01/22 02:22:43;;;;;;;8.77;6.45;;;;;;;;;;5033456;28;20221;-62
2023/01/22 02:25:11;;;;;;;9.50;7.00;;;;;;;;;;5041220;28;20193;-62
2023/01/22 02:27:39;;;;;;;7.22;6.32;;;;;;;;;;5053088;28;20203;-62
2023/01/22 02:30:09;;;;;;;13.90;7.57;;;;;;;;;;5053104;28;20656;-62
2023/01/22 02:32:37;;;;;;;11.52;7.32;;;;;;;;;;5036601;28;20205;-62
2023/01/22 02:35:06;;;;;;;11.65;7.90;;;;;;;;;;5034226;28;20669;-62
2023/01/22 02:37:34;;;;;;;12.05;7.55;;;;;;;;;;5032970;28;20588;-61
2023/01/22 02:40:04;;;;;;;9.98;7.10;;;;;;;;;;5046712;28;20200;-62
2023/01/22 02:42:31;;;;;;;10.50;7.05;;;;;;;;;;5052921;28;20205;-59
2023/01/22 02:44:59;;;;;;;10.65;7.45;;;;;;;;;;5045051;28;20198;-62
2023/01/22 02:47:28;;;;;;;9.18;6.45;;;;;;;;;;5032824;28;20198;-62
2023/01/22 02:49:56;;;;;;;9.40;6.88;;;;;;;;;;5032952;28;20205;-63
2023/01/22 02:52:24;;;;;;;12.82;8.02;;;;;;;;;;5033919;28;20714;-62
2023/01/22 02:54:52;;;;;;;11.20;7.00;;;;;;;;;;5034599;28;20206;-62
2023/01/22 02:57:21;;;;;;;9.43;6.90;;;;;;;;;;5037450;28;20218;-61
2023/01/22 02:59:49;;;;;;;11.20;6.60;;;;;;;;;;5046401;28;20197;-62
2023/01/22 03:02:17;;;;;;;13.82;6.95;;;;;;;;;;5034676;28;20205;-62
2023/01/22 03:04:48;;;;;;;8.80;7.22;;;;;;;;;;5035902;28;20208;-62
2023/01/22 03:07:17;;;;;;;11.00;6.05;;;;;;;;;;5033471;28;20193;-62
2023/01/22 03:09:45;;;;;;;12.82;6.80;;;;;;;;;;5041386;28;20211;-62
2023/01/22 03:12:13;;;;;;;9.60;7.13;;;;;;;;;;5051885;28;20212;-61
2023/01/22 03:23:01;;;;;;;10.63;7.30;;;;;;;;;;5036870;28;20217;-61
2023/01/22 03:25:29;;;;;;;10.75;7.40;;;;;;;;;;5033393;28;20715;-62
2023/01/22 03:28:17;;;;;;;13.45;6.78;;;;;;;;;;5035171;28;20200;-62
2023/01/22 03:30:52;;;;;;;12.10;8.13;;;;;;;;;;5060181;28;20197;-62
2023/01/22 03:33:20;;;;;;;15.85;6.70;;;;;;;;;;5051706;28;20663;-62
2023/01/22 03:35:50;;;;;;;9.98;7.15;;;;;;;;;;5032762;28;20201;-61
2023/01/22 03:38:21;;;;;;;8.95;6.85;;;;;;;;;;5033132;28;20210;-60
2023/01/22 03:40:49;;;;;;;13.48;7.55;;;;;;;;;;5045369;28;20659;-62
2023/01/22 03:43:18;;;;;;;9.73;7.43;;;;;;;;;;5038711;28;20678;-62
2023/01/22 03:45:46;;;;;;;9.70;6.75;;;;;;;;;;5042810;28;20571;-62
2023/01/22 03:48:18;;;;;;;9.98;6.60;;;;;;;;;;5031870;28;20186;-62
2023/01/22 03:50:47;;;;;;;10.60;6.97;;;;;;;;;;5031766;28;20194;-62
2023/01/22 03:53:16;;;;;;;13.38;7.57;;;;;;;;;;5034551;28;20197;-62
2023/01/22 03:55:44;;;;;;;9.43;6.53;;;;;;;;;;5045654;28;20224;-62
2023/01/22 03:58:13;;;;;;;11.23;6.78;;;;;;;;;;5032053;28;20209;-62
2023/01/22 04:00:41;;;;;;;10.52;7.10;;;;;;;;;;5032111;28;20212;-61
2023/01/22 04:03:10;;;;;;;10.65;6.95;;;;;;;;;;5048935;28;20201;-62
2023/01/22 04:05:42;;;;;;;12.50;8.15;;;;;;;;;;5050312;28;20509;-62
2023/01/22 04:08:12;;;;;;;11.65;7.13;;;;;;;;;;5047465;28;20683;-62
2023/01/22 04:10:44;;;;;;;9.50;6.55;;;;;;;;;;5050359;28;20200;-62
2023/01/22 04:13:12;;;;;;;12.48;7.65;;;;;;;;;;5051510;28;20211;-61
2023/01/22 04:15:44;;;;;;;9.15;7.05;;;;;;;;;;5050680;28;20240;-62
2023/01/22 04:18:23;;;;;;;12.50;7.47;;;;;;;;;;5051708;28;20204;-62
2023/01/22 04:21:15;;;;;;;9.73;6.18;;;;;;;;;;5028892;28;20217;-62
2023/01/22 04:23:49;;;;;;;9.68;7.75;;;;;;;;;;5047741;28;20228;-61
2023/01/22 04:26:17;;;;;;;7.60;6.45;;;;;;;;;;5032231;28;20209;-62
2023/01/22 04:28:46;;;;;;;7.78;6.40;;;;;;;;;;5047564;28;20224;-61
2023/01/22 04:31:15;;;;;;;7.80;6.70;;;;;;;;;;5047380;28;20205;-62
2023/01/22 04:34:03;;;;;;;11.98;7.03;;;;;;;;;;5032676;28;20211;-62
2023/01/22 04:36:35;;;;;;;8.80;7.00;;;;;;;;;;5047270;28;20215;-62
2023/01/22 04:39:03;;;;;;;9.73;7.00;;;;;;;;;;5032641;28;20207;-62
2023/01/22 04:41:31;;;;;;;9.93;7.35;;;;;;;;;;5033466;28;20205;-61
2023/01/22 04:44:00;;;;;;;10.13;7.03;;;;;;;;;;5031118;28;20209;-62
2023/01/22 04:46:31;;;;;;;11.70;7.43;;;;;;;;;;5047497;28;20272;-62
2023/01/22 04:48:59;;;;;;;8.85;6.35;;;;;;;;;;5031183;28;20213;-62
2023/01/22 04:51:27;;;;;;;13.90;8.27;;;;;;;;;;5031258;28;20205;-62
2023/01/22 04:53:57;;;;;;;9.82;7.78;;;;;;;;;;5034502;28;20213;-62
2023/01/22 04:56:25;;;;;;;12.75;8.13;;;;;;;;;;5026602;28;20227;-62
2023/01/22 04:58:53;;;;;;;10.40;7.28;;;;;;;;;;5036431;28;20225;-62
2023/01/22 05:01:22;;;;;;;12.10;7.60;;;;;;;;;;5034823;28;20208;-62
2023/01/22 05:03:51;;;;;;;8.88;7.22;;;;;;;;;;5033926;28;20243;-62
2023/01/22 05:06:19;;;;;;;11.75;8.05;;;;;;;;;;5034804;28;20672;-62
2023/01/22 05:08:48;;;;;;;11.30;7.20;;;;;;;;;;5036225;28;20201;-63
2023/01/22 05:11:18;;;;;;;9.35;7.05;;;;;;;;;;5036285;28;20201;-62
2023/01/22 05:13:55;;;;;;;10.60;7.35;;;;;;;;;;5034437;28;20648;-61
2023/01/22 05:16:23;;;;;;;10.38;6.47;;;;;;;;;;5035763;28;20600;-61
2023/01/22 05:18:51;;;;;;;9.65;7.35;;;;;;;;;;5035997;28;20213;-61
2023/01/22 05:21:20;;;;;;;11.23;7.78;;;;;;;;;;5035243;28;20201;-61
2023/01/22 05:23:48;;;;;;;10.45;6.95;;;;;;;;;;5033932;28;20609;-62
2023/01/22 05:26:19;;;;;;;10.35;7.55;;;;;;;;;;5034747;28;20271;-62
2023/01/22 05:28:55;;;;;;;8.85;6.75;;;;;;;;;;5033856;28;20189;-62
2023/01/22 05:31:31;;;;;;;10.90;7.22;;;;;;;;;;5035874;28;20239;-61
2023/01/22 05:34:04;;;;;;;11.75;7.57;;;;;;;;;;5033999;28;20190;-62
2023/01/22 05:36:32;;;;;;;10.30;6.68;;;;;;;;;;5035053;28;20207;-62
2023/01/22 05:39:06;;;;;;;10.77;6.95;;;;;;;;;;5033738;28;20213;-62
2023/01/22 05:41:37;;;;;;;9.80;7.28;;;;;;;;;;5018242;28;20206;-62
2023/01/22 05:44:06;;;;;;;12.23;6.97;;;;;;;;;;5034153;28;20213;-62
2023/01/22 05:46:34;;;;;;;11.82;7.57;;;;;;;;;;5048556;28;20209;-61
2023/01/22 05:49:20;;;;;;;9.35;6.78;;;;;;;;;;5054491;28;20185;-63
2023/01/22 05:51:50;;;;;;;10.63;6.78;;;;;;;;;;5054905;28;20296;-64
2023/01/22 05:54:19;;;;;;;9.27;6.50;;;;;;;;;;5053852;28;20205;-63
2023/01/22 05:56:50;;;;;;;10.77;7.22;;;;;;;;;;5054043;28;20211;-63
2023/01/22 05:59:18;;;;;;;9.65;6.90;;;;;;;;;;5053773;28;20580;-63
2023/01/22 06:01:54;;;;;;;10.45;7.63;;;;;;;;;;5052683;28;20722;-61
2023/01/22 06:04:23;;;;;;;12.10;7.55;;;;;;;;;;5052927;28;20223;-61
2023/01/22 06:06:51;;;;;;;11.27;7.22;;;;;;;;;;5055077;28;20236;-63
2023/01/22 06:09:22;;;;;;;7.93;6.35;;;;;;;;;;5053615;28;20193;-61
2023/01/22 06:11:52;;;;;;;10.55;6.53;;;;;;;;;;5049464;28;20215;-63
2023/01/22 06:14:21;;;;;;;8.88;6.68;;;;;;;;;;5040769;28;20562;-61
2023/01/22 06:16:50;;;;;;;10.95;8.02;;;;;;;;;;5054265;28;20234;-61
2023/01/22 06:19:38;;;;;;;11.32;8.05;;;;;;;;;;5041160;28;20278;-63
2023/01/22 06:22:07;;;;;;;8.75;6.43;;;;;;;;;;5034702;28;20215;-63
2023/01/22 06:24:46;;;;;;;9.25;6.15;;;;;;;;;;5053728;28;20188;-63
2023/01/22 06:27:17;;;;;;;9.07;7.00;;;;;;;;;;5052917;28;20609;-63
2023/01/22 06:29:56;;;;;;;10.20;6.88;;;;;;;;;;5053293;28;20203;-63
2023/01/22 06:32:24;;;;;;;9.43;6.97;;;;;;;;;;5035862;28;20212;-63
2023/01/22 06:34:53;;;;;;;12.38;7.90;;;;;;;;;;5033638;28;20224;-63
2023/01/22 06:37:21;;;;;;;6.47;5.78;;;;;;;;;;5032606;28;20305;-62
2023/01/22 06:39:50;;;;;;;10.27;6.68;;;;;;;;;;5033491;28;20221;-63
2023/01/22 06:42:27;;;;;;;10.10;7.00;;;;;;;;;;5048477;28;20200;-62
2023/01/22 06:44:59;;;;;;;10.00;7.32;;;;;;;;;;5053312;28;20184;-62
2023/01/22 06:47:31;;;;;;;9.15;7.20;;;;;;;;;;5052142;28;20670;-62
2023/01/22 06:50:00;;;;;;;11.32;7.65;;;;;;;;;;5053354;28;20204;-62
2023/01/22 06:52:28;;;;;;;12.68;7.55;;;;;;;;;;5053716;28;20204;-61
2023/01/22 06:54:56;;;;;;;9.43;7.18;;;;;;;;;;5054433;28;20204;-61
2023/01/22 06:57:28;;;;;;;10.80;7.53;;;;;;;;;;5049017;28;20203;-63
2023/01/22 06:59:57;;;;;;;11.23;7.45;;;;;;;;;;5043680;28;20238;-62
2023/01/22 07:02:25;;;;;;;9.18;6.55;;;;;;;;;;5040855;28;20205;-62
2023/01/22 07:04:53;;;;;;;13.57;7.38;;;;;;;;;;5041168;28;20196;-62
2023/01/22 07:07:22;;;;;;;10.00;7.18;;;;;;;;;;5042649;28;20604;-62
2023/01/22 07:09:50;;;;;;;8.52;6.32;;;;;;;;;;5044565;28;20201;-62
2023/01/22 07:12:21;;;;;;;9.73;6.65;;;;;;;;;;5041279;28;20240;-62
2023/01/22 07:14:50;;;;;;;9.00;6.70;;;;;;;;;;5042202;28;20225;-62
2023/01/22 07:17:19;;;;;;;7.45;6.45;;;;;;;;;;5042654;28;20819;-62
2023/01/22 07:19:47;;;;;;;8.48;7.18;;;;;;;;;;5042296;28;20222;-62
2023/01/22 07:22:15;;;;;;;8.38;6.88;;;;;;;;;;5040965;28;20224;-61
2023/01/22 07:24:43;;;;;;;11.93;7.13;;;;;;;;;;5041562;28;20197;-63
2023/01/22 07:27:11;;;;;;;15.35;6.88;;;;;;;;;;5041996;28;20199;-62
2023/01/22 07:29:39;;;;;;;9.38;7.28;;;;;;;;;;5042979;28;20644;-62
2023/01/22 07:32:09;;;;;;;9.32;7.25;;;;;;;;;;5044784;28;20197;-63
2023/01/22 07:34:37;;;;;;;11.43;7.72;;;;;;;;;;5052029;28;20216;-61
2023/01/22 07:37:06;;;;;;;8.95;6.63;;;;;;;;;;5049842;28;20209;-62
2023/01/22 07:39:34;;;;;;;9.35;6.78;;;;;;;;;;5044155;28;20243;-62
2023/01/22 07:42:02;;;;;;;11.25;6.65;;;;;;;;;;5042348;28;20247;-62
2023/01/22 07:44:32;;;;;;;10.10;6.38;;;;;;;;;;5040387;28;20567;-62
2023/01/22 07:47:00;;;;;;;9.18;6.68;;;;;;;;;;5041806;28;20251;-62
2023/01/22 07:49:29;;;;;;;10.25;7.32;;;;;;;;;;5040584;28;20197;-62
2023/01/22 07:51:57;;;;;;;9.38;6.65;;;;;;;;;;5032678;28;20668;-63
2023/01/22 07:54:25;;;;;;;11.40;7.10;;;;;;;;;;5033108;28;20197;-63
2023/01/22 07:56:53;;;;;;;8.50;6.78;;;;;;;;;;5043947;28;20208;-61
2023/01/22 07:59:21;;;;;;;13.35;9.05;;;;;;;;;;5070801;28;20223;-62
2023/01/22 08:01:49;;;;;;;13.20;8.40;;;;;;;;;;5071545;28;20200;-62
2023/01/22 08:04:17;;;;;;;9.88;6.82;;;;;;;;;;5071466;28;20207;-61
2023/01/22 08:06:47;;;;;;;9.48;7.20;;;;;;;;;;5071799;28;20204;-64
2023/01/22 08:09:22;;;;;;;7.70;6.50;;;;;;;;;;5046275;28;20195;-62
2023/01/22 08:11:50;;;;;;;7.82;5.93;;;;;;;;;;5072224;28;20202;-63
2023/01/22 08:14:18;;;;;;;7.55;5.78;;;;;;;;;;5072255;28;20211;-61
2023/01/22 08:16:45;;;;;;;9.20;7.10;;;;;;;;;;5071489;28;20596;-62
2023/01/22 08:19:13;;;;;;;7.82;6.63;;;;;;;;;;5071284;28;20219;-63
2023/01/22 08:21:41;;;;;;;9.65;8.45;;;;;;;;;;5058294;28;20555;-62
2023/01/22 08:24:12;;;;;;;9.18;7.10;;;;;;;;;;5052565;28;20224;-61
2023/01/22 08:26:40;;;;;;;9.75;7.28;;;;;;;;;;5047692;28;20189;-62
2023/01/22 08:29:08;;;;;;;9.80;7.60;;;;;;;;;;5052571;28;20204;-64
2023/01/22 08:31:36;;;;;;;12.35;8.30;;;;;;;;;;5049712;28;20207;-63
2023/01/22 08:34:04;;;;;;;15.70;10.35;;;;;;;;;;5060882;28;20231;-63
2023/01/22 08:36:32;;;;;;;12.57;9.98;;;;;;;;;;5055841;28;20207;-62
2023/01/22 08:39:00;;;;;;;13.60;10.02;;;;;;;;;;5064898;28;20717;-63
2023/01/22 08:41:30;;;;;;;11.50;9.00;;;;;;;;;;5070886;28;20200;-63
2023/01/22 08:43:57;;;;;;;11.75;8.88;;;;;;;;;;5072297;28;20196;-65
2023/01/22 08:46:25;;;;;;;11.30;8.73;;;;;;;;;;5071644;28;20214;-65
2023/01/22 08:48:54;;;;;;;10.98;8.07;;;;;;;;;;5071208;28;20196;-63
2023/01/22 08:51:23;;;;;;;13.82;11.13;;;;;;;;;;5071945;28;20203;-64
2023/01/22 08:53:51;;;;;;;8.45;7.50;;;;;;;;;;5069710;28;20677;-63
2023/01/22 08:56:19;;;;;;;8.07;6.32;;;;;;;;;;5071415;28;20200;-63
2023/01/22 08:58:50;;;;;;;10.95;7.43;;;;;;;;;;5071556;28;20204;-63
2023/01/22 09:01:18;;;;;;;10.13;8.05;;;;;;;;;;5054711;28;20204;-63
2023/01/22 09:03:47;;;;;;;8.02;6.53;;;;;;;;;;5070273;28;20266;-62
2023/01/22 09:06:15;;;;;;;10.73;7.43;;;;;;;;;;5070989;28;20208;-64
2023/01/22 09:08:43;;;;;;;14.18;7.70;;;;;;;;;;5054599;28;20207;-60
2023/01/22 09:11:11;;;;;;;14.10;10.10;;;;;;;;;;5049543;28;20678;-61
2023/01/22 09:13:39;;;;;;;11.68;8.32;;;;;;;;;;5041619;28;20197;-60
2023/01/22 09:16:09;;;;;;;13.30;8.70;;;;;;;;;;5051340;28;20220;-61
2023/01/22 09:18:37;;;;;;;11.60;8.60;;;;;;;;;;5041593;28;20201;-63
2023/01/22 09:21:06;;;;;;;12.40;8.40;;;;;;;;;;5031571;28;20232;-64
2023/01/22 09:23:33;;;;;;;11.70;7.95;;;;;;;;;;5047624;28;20714;-64
2023/01/22 09:26:01;;;;;;;12.85;9.40;;;;;;;;;;5051501;28;20200;-63
2023/01/22 09:28:29;;;;;;;14.15;9.50;;;;;;;;;;5042977;28;20656;-62
2023/01/22 09:30:57;;;;;;;13.98;9.25;;;;;;;;;;5051412;28;20205;-63
2023/01/22 09:33:27;;;;;;;10.75;8.85;;;;;;;;;;5045509;28;20204;-62
2023/01/22 09:35:55;;;;;;;12.70;8.75;;;;;;;;;;5041582;28;20210;-63
2023/01/22 09:38:23;;;;;;;10.80;8.48;;;;;;;;;;5051638;28;20209;-63
2023/01/22 09:40:53;;;;;;;10.68;8.00;;;;;;;;;;5048628;28;20214;-64
2023/01/22 09:43:27;;;;;;;9.02;7.85;;;;;;;;;;5046809;28;20196;-63
2023/01/22 09:45:57;;;;;;;9.63;7.93;;;;;;;;;;5047456;28;20640;-62
2023/01/22 09:48:30;;;;;;;10.50;8.25;;;;;;;;;;5044414;28;20239;-63
2023/01/22 09:50:58;;;;;;;10.55;9.43;;;;;;;;;;5045268;28;20193;-63
2023/01/22 09:53:26;;;;;;;12.68;9.02;;;;;;;;;;5043495;28;20204;-63
2023/01/22 09:55:56;;;;;;;13.43;8.80;;;;;;;;;;5045335;28;20555;-62
2023/01/22 09:58:25;;;;;;;9.45;7.10;;;;;;;;;;5041451;28;20216;-63
2023/01/22 10:00:56;;;;;;;11.15;8.50;;;;;;;;;;5041575;28;20617;-63
2023/01/22 10:03:29;;;;;;;10.40;9.00;;;;;;;;;;5034560;28;20208;-63
2023/01/22 10:05:58;;;;;;;10.80;8.32;;;;;;;;;;5039121;28;20192;-63
2023/01/22 10:08:29;;;;;;;9.95;8.20;;;;;;;;;;5060602;28;20192;-63
2023/01/22 10:10:59;;;;;;;10.52;8.45;;;;;;;;;;5052070;28;20500;-62
2023/01/22 10:13:29;;;;;;;11.63;9.60;;;;;;;;;;5034791;28;20197;-63
2023/01/22 10:15:57;;;;;;;9.02;7.30;;;;;;;;;;5045044;28;20233;-63
2023/01/22 10:18:30;;;;;;;10.85;9.02;;;;;;;;;;5035763;28;20193;-63
2023/01/22 10:20:58;;;;;;;11.05;8.10;;;;;;;;;;5035241;28;20220;-63
2023/01/22 10:23:28;;;;;;;15.30;8.82;;;;;;;;;;5045224;28;20228;-63
2023/01/22 10:26:00;;;;;;;13.45;8.68;;;;;;;;;;5038133;28;20671;-63
2023/01/22 10:28:28;;;;;;;13.60;8.88;;;;;;;;;;5037839;28;20209;-60
2023/01/22 10:30:57;;;;;;;12.13;9.80;;;;;;;;;;5051976;28;20208;-63
2023/01/22 10:33:26;;;;;;;10.68;8.52;;;;;;;;;;5054447;28;20204;-62
2023/01/22 10:35:56;;;;;;;8.95;7.30;;;;;;;;;;5037211;28;20204;-62
2023/01/22 10:38:26;;;;;;;10.68;8.60;;;;;;;;;;5039178;28;20859;-63
2023/01/22 10:40:59;;;;;;;12.75;10.27;;;;;;;;;;5033292;28;20233;-63
2023/01/22 10:43:32;;;;;;;12.27;9.90;;;;;;;;;;5036161;28;20674;-63
2023/01/22 10:46:03;;;;;;;8.77;7.82;;;;;;;;;;5038634;28;20200;-63
2023/01/22 10:48:31;;;;;;;8.82;7.75;;;;;;;;;;5053876;28;20199;-62
2023/01/22 10:51:03;;;;;;;12.05;9.20;;;;;;;;;;5034241;28;20569;-63
2023/01/22 10:53:32;;;;;;;9.73;8.30;;;;;;;;;;5046544;28;20557;-63
2023/01/22 10:56:01;;;;;;;7.85;7.10;;;;;;;;;;5038034;28;20198;-63
2023/01/22 10:58:31;;;;;;;10.38;8.57;;;;;;;;;;5034127;28;20540;-63
2023/01/22 11:01:01;;;;;;;9.70;7.72;;;;;;;;;;5048285;28;20231;-61
2023/01/22 11:03:31;;;;;;;12.40;7.95;;;;;;;;;;5032701;28;20201;-63
2023/01/22 11:06:00;;;;;;;13.27;8.68;;;;;;;;;;5035017;28;20201;-62
2023/01/22 11:08:43;;;;;;;11.25;9.55;;;;;;;;;;5044579;28;20201;-63
2023/01/22 11:11:12;;;;;;;10.93;7.90;;;;;;;;;;5044848;28;20543;-63
2023/01/22 11:13:45;;;;;;;10.27;8.43;;;;;;;;;;5052423;28;20557;-63
2023/01/22 11:16:15;;;;;;;10.77;8.48;;;;;;;;;;5038705;28;20597;-63
2023/01/22 11:18:43;;;;;;;11.43;9.05;;;;;;;;;;5050800;28;20613;-63
2023/01/22 11:21:14;;;;;;;9.48;8.20;;;;;;;;;;5053112;28;20228;-63
2023/01/22 11:23:47;;;;;;;11.73;7.43;;;;;;;;;;5047480;28;20228;-63
2023/01/22 11:26:17;;;;;;;10.23;8.13;;;;;;;;;;5050199;28;20212;-63
2023/01/22 11:28:52;;;;;;;10.48;8.30;;;;;;;;;;5045409;28;20193;-62
2023/01/22 11:31:33;;;;;;;11.50;8.38;;;;;;;;;;5049050;28;20203;-63
2023/01/22 11:34:18;;;;;;;9.70;8.70;;;;;;;;;;5049824;28;20197;-63
2023/01/22 11:36:50;;;;;;;11.35;8.38;;;;;;;;;;5043086;28;20573;-63
2023/01/22 11:39:30;;;;;;;12.18;7.97;;;;;;;;;;5052046;28;20208;-63
2023/01/22 11:42:02;;;;;;;8.13;7.28;;;;;;;;;;5051552;28;20224;-63
2023/01/22 11:44:41;;;;;;;11.05;7.93;;;;;;;;;;5044045;28;20651;-62
2023/01/22 11:47:20;;;;;;;10.13;8.10;;;;;;;;;;5050728;28;20231;-64
2023/01/22 11:49:54;;;;;;;9.48;7.35;;;;;;;;;;5044791;28;20233;-63
2023/01/22 11:52:29;;;;;;;9.35;8.40;;;;;;;;;;5048004;28;20220;-63
2023/01/22 11:55:07;;;;;;;9.20;8.10;;;;;;;;;;5050440;28;20208;-63
2023/01/22 11:57:37;;;;;;;9.82;8.55;;;;;;;;;;5051261;28;20215;-63
2023/01/22 12:00:25;;;;;;;10.20;7.57;;;;;;;;;;5043121;28;20197;-63
2023/01/22 12:03:01;;;;;;;9.40;8.00;;;;;;;;;;5044918;28;20196;-63
2023/01/22 12:05:37;;;;;;;10.82;8.30;;;;;;;;;;5046170;28;20196;-63
2023/01/22 12:08:16;;;;;;;14.90;10.30;;;;;;;;;;5043299;28;20199;-63
2023/01/22 12:10:54;;;;;;;10.95;8.65;;;;;;;;;;5045241;28;20197;-63
2023/01/22 12:13:32;;;;;;;8.95;8.00;;;;;;;;;;5044897;28;20193;-63
2023/01/22 12:16:04;;;;;;;12.35;8.25;;;;;;;;;;5039213;28;20774;-61
2023/01/22 12:18:47;;;;;;;9.85;7.28;;;;;;;;;;5033253;28;20251;-62
2023/01/22 12:21:20;;;;;;;12.60;8.55;;;;;;;;;;5046003;28;20223;-62
2023/01/22 12:23:51;;;;;;;9.95;7.40;;;;;;;;;;5051247;28;20220;-63
2023/01/22 12:26:22;;;;;;;8.80;7.50;;;;;;;;;;5041259;28;20208;-64
2023/01/22 12:28:52;;;;;;;10.23;8.65;;;;;;;;;;5044633;28;20201;-62
2023/01/22 12:31:24;;;;;;;10.77;9.70;;;;;;;;;;5040546;28;20197;-62
2023/01/22 12:33:52;;;;;;;13.10;9.50;;;;;;;;;;5038013;28;20201;-62
2023/01/22 12:36:21;;;;;;;9.50;8.10;;;;;;;;;;5034486;28;20201;-62
2023/01/22 12:38:53;;;;;;;11.82;9.13;;;;;;;;;;5052525;28;20565;-62
2023/01/22 12:41:28;;;;;;;10.02;7.25;;;;;;;;;;5051041;28;20205;-63
2023/01/22 12:43:57;;;;;;;9.30;7.95;;;;;;;;;;5052885;28;20196;-62
2023/01/22 12:46:29;;;;;;;10.82;8.00;;;;;;;;;;5049769;28;20209;-62
2023/01/22 12:49:05;;;;;;;9.68;8.05;;;;;;;;;;5052397;28;20585;-62
2023/01/22 12:51:37;;;;;;;9.68;7.90;;;;;;;;;;5045352;28;20196;-62
2023/01/22 12:54:09;;;;;;;10.32;8.30;;;;;;;;;;5044677;28;20201;-63
2023/01/22 12:56:39;;;;;;;10.00;8.52;;;;;;;;;;5046964;28;20258;-61
2023/01/22 12:59:06;;;;;;;10.38;9.15;;;;;;;;;;5046966;28;20204;-64
2023/01/22 13:01:35;;;;;;;11.40;8.35;;;;;;;;;;5046294;28;20273;-62
2023/01/22 13:04:06;;;;;;;8.82;7.88;;;;;;;;;;5045098;28;20212;-62
2023/01/22 13:06:35;;;;;;;7.60;6.55;;;;;;;;;;5042387;28;20208;-62
2023/01/22 13:09:04;;;;;;;8.15;7.28;;;;;;;;;;5050419;28;20204;-62
2023/01/22 13:11:34;;;;;;;8.90;7.65;;;;;;;;;;5051649;28;20207;-66
2023/01/22 13:14:17;;;;;;;10.20;9.10;;;;;;;;;;5052186;28;20205;-62
2023/01/22 13:16:50;;;;;;;10.18;8.85;;;;;;;;;;5040729;28;20220;-63
2023/01/22 13:19:21;;;;;;;10.65;8.15;;;;;;;;;;5042443;28;20235;-63
2023/01/22 13:21:49;;;;;;;9.32;7.93;;;;;;;;;;5036092;28;20692;-63
2023/01/22 13:24:19;;;;;;;12.18;9.18;;;;;;;;;;5042748;28;20201;-63
2023/01/22 13:26:52;;;;;;;8.52;7.60;;;;;;;;;;5055522;28;20207;-63
2023/01/22 13:29:23;;;;;;;7.97;7.03;;;;;;;;;;5053914;28;20220;-64
2023/01/22 13:31:54;;;;;;;8.63;7.28;;;;;;;;;;5063367;28;20196;-63
2023/01/22 13:34:23;;;;;;;8.20;7.40;;;;;;;;;;5074704;28;20681;-63
2023/01/22 13:36:52;;;;;;;8.25;7.45;;;;;;;;;;5058342;28;20212;-64
2023/01/22 13:39:21;;;;;;;8.68;6.85;;;;;;;;;;5062795;28;20222;-63
2023/01/22 13:41:50;;;;;;;7.57;6.88;;;;;;;;;;5056109;28;20228;-63
2023/01/22 13:44:19;;;;;;;9.88;7.60;;;;;;;;;;5050182;28;20208;-63
2023/01/22 13:46:49;;;;;;;7.65;6.85;;;;;;;;;;5056592;28;20203;-65
2023/01/22 13:49:20;;;;;;;7.93;6.90;;;;;;;;;;5072662;28;20541;-63
2023/01/22 13:51:49;;;;;;;8.10;7.30;;;;;;;;;;5066444;28;20203;-63
2023/01/22 13:54:20;;;;;;;7.85;6.25;;;;;;;;;;5061084;28;20507;-61
2023/01/22 13:56:48;;;;;;;9.45;7.13;;;;;;;;;;5074941;28;20207;-63
2023/01/22 13:59:21;;;;;;;7.93;7.10;;;;;;;;;;5063380;28;20204;-63
2023/01/22 14:01:51;;;;;;;8.55;7.38;;;;;;;;;;5060645;28;20208;-63
2023/01/22 14:04:26;;;;;;;9.35;8.35;;;;;;;;;;5063767;28;20200;-62
2023/01/22 14:06:55;;;;;;;9.57;7.55;;;;;;;;;;5072334;28;20199;-64
2023/01/22 14:09:27;;;;;;;9.25;8.30;;;;;;;;;;5054205;28;20212;-63
2023/01/22 14:11:54;;;;;;;8.70;7.72;;;;;;;;;;5072112;28;20188;-63
2023/01/22 14:14:22;;;;;;;8.48;7.43;;;;;;;;;;5067972;28;20207;-63
2023/01/22 14:16:52;;;;;;;7.18;6.05;;;;;;;;;;5073393;28;20204;-64
2023/01/22 14:19:20;;;;;;;8.48;7.60;;;;;;;;;;5062833;28;20205;-63
2023/01/22 14:21:48;;;;;;;8.07;7.28;;;;;;;;;;5074373;28;20231;-63
2023/01/22 14:24:15;;;;;;;9.77;7.65;;;;;;;;;;5073397;28;20210;-63
2023/01/22 14:26:43;;;;;;;8.70;6.80;;;;;;;;;;5061900;28;20204;-63
2023/01/22 14:29:12;;;;;;;10.05;7.10;;;;;;;;;;5073950;28;20245;-62
2023/01/22 14:31:40;;;;;;;9.88;8.07;;;;;;;;;;5049780;28;20197;-63
2023/01/22 14:34:11;;;;;;;10.07;7.80;;;;;;;;;;5063558;28;20207;-63
2023/01/22 14:36:39;;;;;;;9.60;8.23;;;;;;;;;;5072727;28;20202;-62
2023/01/22 14:39:07;;;;;;;9.75;7.05;;;;;;;;;;5064505;28;20600;-62
2023/01/22 14:41:35;;;;;;;9.60;7.80;;;;;;;;;;5066029;28;20227;-63
2023/01/22 14:44:04;;;;;;;8.20;7.38;;;;;;;;;;5050386;28;20211;-61
2023/01/22 14:46:32;;;;;;;8.43;7.45;;;;;;;;;;5060745;28;20212;-62
2023/01/22 14:49:00;;;;;;;8.43;7.15;;;;;;;;;;5053855;28;20265;-63
2023/01/22 14:51:30;;;;;;;7.45;6.65;;;;;;;;;;5053342;28;20205;-63
2023/01/22 14:53:58;;;;;;;8.10;7.30;;;;;;;;;;5036530;28;20212;-63
2023/01/22 14:56:26;;;;;;;10.27;8.30;;;;;;;;;;5054049;28;20492;-63
2023/01/22 14:58:55;;;;;;;8.40;7.50;;;;;;;;;;5035033;28;20566;-63
2023/01/22 15:01:23;;;;;;;10.20;8.43;;;;;;;;;;5048083;28;20212;-63
2023/01/22 15:03:52;;;;;;;8.82;7.15;;;;;;;;;;5048097;28;20633;-61